首页
METAR-TAF:

METAR-TAF

机场 :

Moultrie Municipal Airport

Moultrie, 喬治亞, 美国

纬度: 31-05-05N, 经度: 083-48-11W, 海拔: 90米

当前天气观测

该预报发布于37分钟前的00:15 UTC
风速5节,风向西转西北
温度 6°C
湿度 87%
气压 1022 hPa
能見度: 16.1公里
阴天层高于1100英尺

METAR: KMGR 110015Z AUTO 30005KT 10SM OVC011 06/04 A3018 RMK AO2

时间: 19:52 (00:52 UTC)


TAF: 丢失

超过4000个机场的气象观测和天气预报(METAR&TAF报告)。

可查询的气象台以黄色和红色小点在地图上表示。

将鼠标移到小点上方,可查看气象台名称。

然后点击查看天气观测和预报。

如需切换地图:点击带黑十字的绿色按钮放大地图;点击带横线的绿色按钮缩小地图;或者点击绿色箭头查看邻近地区的地图。


METAR-TAF: